sensor_id;sensor_type;location;lat;lon;timestamp;P1;durP1;ratioP1;P2;durP2;ratioP2
23300;SDS011;11819;51.394;12.340;2023-04-16T00:00:41;32.08;;;20.38;;
23300;SDS011;11819;51.394;12.340;2023-04-16T00:03:06;29.90;;;19.33;;
23300;SDS011;11819;51.394;12.340;2023-04-16T00:05:32;27.13;;;18.17;;
23300;SDS011;11819;51.394;12.340;2023-04-16T00:07:57;29.70;;;18.27;;
23300;SDS011;11819;51.394;12.340;2023-04-16T00:10:23;30.23;;;19.30;;
23300;SDS011;11819;51.394;12.340;2023-04-16T00:12:48;25.20;;;16.83;;
23300;SDS011;11819;51.394;12.340;2023-04-16T00:15:14;28.70;;;16.70;;
23300;SDS011;11819;51.394;12.340;2023-04-16T00:17:40;28.20;;;15.73;;
23300;SDS011;11819;51.394;12.340;2023-04-16T00:20:06;31.55;;;16.38;;
23300;SDS011;11819;51.394;12.340;2023-04-16T00:22:33;25.13;;;15.82;;
23300;SDS011;11819;51.394;12.340;2023-04-16T00:24:58;28.05;;;16.60;;
23300;SDS011;11819;51.394;12.340;2023-04-16T00:27:24;28.52;;;16.17;;
23300;SDS011;11819;51.394;12.340;2023-04-16T00:29:49;23.77;;;14.93;;
23300;SDS011;11819;51.394;12.340;2023-04-16T00:32:15;19.42;;;13.77;;
23300;SDS011;11819;51.394;12.340;2023-04-16T00:34:41;22.73;;;14.88;;
23300;SDS011;11819;51.394;12.340;2023-04-16T00:37:06;21.80;;;15.35;;
23300;SDS011;11819;51.394;12.340;2023-04-16T00:39:32;23.63;;;15.02;;
23300;SDS011;11819;51.394;12.340;2023-04-16T00:41:58;25.58;;;14.93;;
23300;SDS011;11819;51.394;12.340;2023-04-16T00:44:23;24.92;;;14.77;;
23300;SDS011;11819;51.394;12.340;2023-04-16T00:46:49;25.27;;;14.02;;
23300;SDS011;11819;51.394;12.340;2023-04-16T00:49:15;20.48;;;14.25;;
23300;SDS011;11819;51.394;12.340;2023-04-16T00:51:41;24.13;;;14.73;;
23300;SDS011;11819;51.394;12.340;2023-04-16T00:54:06;30.02;;;15.65;;
23300;SDS011;11819;51.394;12.340;2023-04-16T00:56:33;25.45;;;15.60;;
23300;SDS011;11819;51.394;12.340;2023-04-16T00:59:00;26.73;;;14.40;;
23300;SDS011;11819;51.394;12.340;2023-04-16T01:01:26;20.85;;;14.35;;
23300;SDS011;11819;51.394;12.340;2023-04-16T01:03:51;21.33;;;13.85;;
23300;SDS011;11819;51.394;12.340;2023-04-16T01:06:17;22.67;;;14.52;;
23300;SDS011;11819;51.394;12.340;2023-04-16T01:08:43;26.83;;;14.95;;
23300;SDS011;11819;51.394;12.340;2023-04-16T01:11:12;20.58;;;14.65;;
23300;SDS011;11819;51.394;12.340;2023-04-16T01:13:39;26.48;;;14.48;;
23300;SDS011;11819;51.394;12.340;2023-04-16T01:16:05;20.67;;;14.80;;
23300;SDS011;11819;51.394;12.340;2023-04-16T01:18:32;26.83;;;16.63;;
23300;SDS011;11819;51.394;12.340;2023-04-16T01:20:58;24.73;;;16.13;;
23300;SDS011;11819;51.394;12.340;2023-04-16T01:23:24;22.08;;;15.43;;
23300;SDS011;11819;51.394;12.340;2023-04-16T01:25:51;23.77;;;15.93;;
23300;SDS011;11819;51.394;12.340;2023-04-16T01:28:17;21.85;;;15.38;;
23300;SDS011;11819;51.394;12.340;2023-04-16T01:30:42;24.63;;;17.15;;
23300;SDS011;11819;51.394;12.340;2023-04-16T01:33:34;23.95;;;15.98;;
23300;SDS011;11819;51.394;12.340;2023-04-16T01:35:59;24.30;;;16.05;;
23300;SDS011;11819;51.394;12.340;2023-04-16T01:38:25;22.55;;;15.25;;
23300;SDS011;11819;51.394;12.340;2023-04-16T01:40:54;24.25;;;15.23;;
23300;SDS011;11819;51.394;12.340;2023-04-16T01:43:21;21.30;;;15.35;;
23300;SDS011;11819;51.394;12.340;2023-04-16T01:45:47;24.40;;;15.90;;
23300;SDS011;11819;51.394;12.340;2023-04-16T01:48:13;22.13;;;15.35;;
23300;SDS011;11819;51.394;12.340;2023-04-16T01:50:39;19.05;;;14.02;;
23300;SDS011;11819;51.394;12.340;2023-04-16T01:53:05;20.48;;;14.57;;
23300;SDS011;11819;51.394;12.340;2023-04-16T01:55:32;20.20;;;14.07;;
23300;SDS011;11819;51.394;12.340;2023-04-16T01:57:57;19.52;;;13.85;;
23300;SDS011;11819;51.394;12.340;2023-04-16T02:00:26;20.15;;;13.80;;
23300;SDS011;11819;51.394;12.340;2023-04-16T02:02:52;19.25;;;13.35;;
23300;SDS011;11819;51.394;12.340;2023-04-16T02:05:24;20.70;;;13.25;;
23300;SDS011;11819;51.394;12.340;2023-04-16T02:07:50;17.90;;;12.65;;
23300;SDS011;11819;51.394;12.340;2023-04-16T02:10:16;19.67;;;13.23;;
23300;SDS011;11819;51.394;12.340;2023-04-16T02:12:42;18.38;;;12.43;;
23300;SDS011;11819;51.394;12.340;2023-04-16T02:15:07;19.02;;;12.55;;
23300;SDS011;11819;51.394;12.340;2023-04-16T02:17:34;19.98;;;13.05;;
23300;SDS011;11819;51.394;12.340;2023-04-16T02:20:06;20.63;;;12.35;;
23300;SDS011;11819;51.394;12.340;2023-04-16T02:22:37;21.48;;;13.73;;
23300;SDS011;11819;51.394;12.340;2023-04-16T02:25:03;22.08;;;13.27;;
23300;SDS011;11819;51.394;12.340;2023-04-16T02:27:29;21.08;;;13.30;;
23300;SDS011;11819;51.394;12.340;2023-04-16T02:30:04;18.70;;;12.50;;
23300;SDS011;11819;51.394;12.340;2023-04-16T02:32:32;22.17;;;14.45;;
23300;SDS011;11819;51.394;12.340;2023-04-16T02:34:58;24.52;;;14.00;;
23300;SDS011;11819;51.394;12.340;2023-04-16T02:37:24;26.20;;;14.00;;
23300;SDS011;11819;51.394;12.340;2023-04-16T02:39:50;32.85;;;15.10;;
23300;SDS011;11819;51.394;12.340;2023-04-16T02:42:18;25.23;;;14.98;;
23300;SDS011;11819;51.394;12.340;2023-04-16T02:44:43;36.17;;;16.85;;
23300;SDS011;11819;51.394;12.340;2023-04-16T02:47:09;40.67;;;16.40;;
23300;SDS011;11819;51.394;12.340;2023-04-16T02:49:35;35.67;;;17.23;;
23300;SDS011;11819;51.394;12.340;2023-04-16T02:52:00;32.85;;;16.25;;
23300;SDS011;11819;51.394;12.340;2023-04-16T02:54:26;30.30;;;16.25;;
23300;SDS011;11819;51.394;12.340;2023-04-16T02:56:51;41.05;;;18.13;;
23300;SDS011;11819;51.394;12.340;2023-04-16T02:59:17;50.15;;;18.48;;
23300;SDS011;11819;51.394;12.340;2023-04-16T03:01:43;41.65;;;19.27;;
23300;SDS011;11819;51.394;12.340;2023-04-16T03:04:08;43.80;;;19.77;;
23300;SDS011;11819;51.394;12.340;2023-04-16T03:06:34;33.15;;;19.52;;
23300;SDS011;11819;51.394;12.340;2023-04-16T03:09:00;34.38;;;18.73;;
23300;SDS011;11819;51.394;12.340;2023-04-16T03:11:25;35.28;;;20.13;;
23300;SDS011;11819;51.394;12.340;2023-04-16T03:13:51;30.23;;;19.48;;
23300;SDS011;11819;51.394;12.340;2023-04-16T03:16:18;27.05;;;17.35;;
23300;SDS011;11819;51.394;12.340;2023-04-16T03:18:43;24.35;;;15.98;;
23300;SDS011;11819;51.394;12.340;2023-04-16T03:21:09;18.80;;;13.13;;
23300;SDS011;11819;51.394;12.340;2023-04-16T03:23:34;18.58;;;12.35;;
23300;SDS011;11819;51.394;12.340;2023-04-16T03:26:00;18.77;;;12.30;;
23300;SDS011;11819;51.394;12.340;2023-04-16T03:28:27;17.92;;;11.85;;
23300;SDS011;11819;51.394;12.340;2023-04-16T03:30:52;17.55;;;11.35;;
23300;SDS011;11819;51.394;12.340;2023-04-16T03:33:18;17.92;;;12.23;;
23300;SDS011;11819;51.394;12.340;2023-04-16T03:35:44;17.50;;;11.20;;
23300;SDS011;11819;51.394;12.340;2023-04-16T03:38:11;16.52;;;11.25;;
23300;SDS011;11819;51.394;12.340;2023-04-16T03:40:37;19.65;;;12.90;;
23300;SDS011;11819;51.394;12.340;2023-04-16T03:43:03;18.38;;;12.32;;
23300;SDS011;11819;51.394;12.340;2023-04-16T03:45:29;19.95;;;12.50;;
23300;SDS011;11819;51.394;12.340;2023-04-16T03:47:55;19.05;;;11.75;;
23300;SDS011;11819;51.394;12.340;2023-04-16T03:50:23;18.13;;;12.60;;
23300;SDS011;11819;51.394;12.340;2023-04-16T03:52:49;19.30;;;12.93;;
23300;SDS011;11819;51.394;12.340;2023-04-16T03:55:16;19.83;;;13.02;;
23300;SDS011;11819;51.394;12.340;2023-04-16T03:57:41;19.13;;;12.85;;
23300;SDS011;11819;51.394;12.340;2023-04-16T04:00:10;21.98;;;13.15;;
23300;SDS011;11819;51.394;12.340;2023-04-16T04:02:39;20.90;;;13.30;;
23300;SDS011;11819;51.394;12.340;2023-04-16T04:05:10;20.60;;;13.82;;
23300;SDS011;11819;51.394;12.340;2023-04-16T04:07:36;22.45;;;13.68;;
23300;SDS011;11819;51.394;12.340;2023-04-16T04:10:02;18.95;;;13.10;;
23300;SDS011;11819;51.394;12.340;2023-04-16T04:12:32;17.60;;;11.23;;
23300;SDS011;11819;51.394;12.340;2023-04-16T04:14:58;15.80;;;10.35;;
23300;SDS011;11819;51.394;12.340;2023-04-16T04:17:25;16.55;;;10.50;;
23300;SDS011;11819;51.394;12.340;2023-04-16T04:19:51;14.60;;;9.07;;
23300;SDS011;11819;51.394;12.340;2023-04-16T04:22:19;15.43;;;9.82;;
23300;SDS011;11819;51.394;12.340;2023-04-16T04:24:45;15.90;;;10.60;;
23300;SDS011;11819;51.394;12.340;2023-04-16T04:27:10;17.17;;;10.85;;
23300;SDS011;11819;51.394;12.340;2023-04-16T04:29:36;16.73;;;9.95;;
23300;SDS011;11819;51.394;12.340;2023-04-16T04:32:02;14.38;;;9.27;;
23300;SDS011;11819;51.394;12.340;2023-04-16T04:34:28;15.27;;;9.45;;
23300;SDS011;11819;51.394;12.340;2023-04-16T04:36:56;13.73;;;8.85;;
23300;SDS011;11819;51.394;12.340;2023-04-16T04:39:21;12.45;;;7.93;;
23300;SDS011;11819;51.394;12.340;2023-04-16T04:41:48;11.85;;;8.00;;
23300;SDS011;11819;51.394;12.340;2023-04-16T04:44:13;13.70;;;8.88;;
23300;SDS011;11819;51.394;12.340;2023-04-16T04:46:40;12.20;;;8.13;;
23300;SDS011;11819;51.394;12.340;2023-04-16T04:49:06;14.15;;;9.00;;
23300;SDS011;11819;51.394;12.340;2023-04-16T04:51:31;13.13;;;9.15;;
23300;SDS011;11819;51.394;12.340;2023-04-16T04:53:57;11.82;;;7.75;;
23300;SDS011;11819;51.394;12.340;2023-04-16T04:56:22;13.60;;;8.60;;
23300;SDS011;11819;51.394;12.340;2023-04-16T04:58:48;11.38;;;7.53;;
23300;SDS011;11819;51.394;12.340;2023-04-16T05:01:17;12.63;;;7.88;;
23300;SDS011;11819;51.394;12.340;2023-04-16T05:03:43;11.77;;;7.57;;
23300;SDS011;11819;51.394;12.340;2023-04-16T05:06:08;14.10;;;8.20;;
23300;SDS011;11819;51.394;12.340;2023-04-16T05:08:34;12.23;;;7.82;;
23300;SDS011;11819;51.394;12.340;2023-04-16T05:10:59;12.63;;;7.95;;
23300;SDS011;11819;51.394;12.340;2023-04-16T05:13:25;12.13;;;8.05;;
23300;SDS011;11819;51.394;12.340;2023-04-16T05:15:51;12.70;;;8.00;;
23300;SDS011;11819;51.394;12.340;2023-04-16T05:18:16;12.02;;;7.35;;
23300;SDS011;11819;51.394;12.340;2023-04-16T05:20:42;11.70;;;7.45;;
23300;SDS011;11819;51.394;12.340;2023-04-16T05:23:07;11.75;;;7.60;;
23300;SDS011;11819;51.394;12.340;2023-04-16T05:25:33;12.27;;;8.13;;
23300;SDS011;11819;51.394;12.340;2023-04-16T05:27:59;12.52;;;7.95;;
23300;SDS011;11819;51.394;12.340;2023-04-16T05:30:24;12.95;;;7.60;;
23300;SDS011;11819;51.394;12.340;2023-04-16T05:32:50;12.82;;;7.93;;
23300;SDS011;11819;51.394;12.340;2023-04-16T05:35:16;14.48;;;8.63;;
23300;SDS011;11819;51.394;12.340;2023-04-16T05:37:41;11.90;;;8.00;;
23300;SDS011;11819;51.394;12.340;2023-04-16T05:40:07;12.88;;;8.23;;
23300;SDS011;11819;51.394;12.340;2023-04-16T05:42:33;12.43;;;8.13;;
23300;SDS011;11819;51.394;12.340;2023-04-16T05:45:00;12.05;;;7.90;;
23300;SDS011;11819;51.394;12.340;2023-04-16T05:47:27;13.27;;;8.23;;
23300;SDS011;11819;51.394;12.340;2023-04-16T05:49:52;12.77;;;8.45;;
23300;SDS011;11819;51.394;12.340;2023-04-16T05:52:18;14.27;;;9.00;;
23300;SDS011;11819;51.394;12.340;2023-04-16T05:54:43;13.13;;;8.35;;
23300;SDS011;11819;51.394;12.340;2023-04-16T05:57:09;13.20;;;8.63;;
23300;SDS011;11819;51.394;12.340;2023-04-16T05:59:35;14.90;;;8.90;;
23300;SDS011;11819;51.394;12.340;2023-04-16T06:02:00;13.55;;;7.97;;
23300;SDS011;11819;51.394;12.340;2023-04-16T06:04:26;13.65;;;8.55;;
23300;SDS011;11819;51.394;12.340;2023-04-16T06:06:51;11.55;;;7.90;;
23300;SDS011;11819;51.394;12.340;2023-04-16T06:09:17;11.05;;;7.35;;
23300;SDS011;11819;51.394;12.340;2023-04-16T06:11:43;11.68;;;7.97;;
23300;SDS011;11819;51.394;12.340;2023-04-16T06:14:08;11.50;;;7.63;;
23300;SDS011;11819;51.394;12.340;2023-04-16T06:16:34;11.45;;;7.60;;
23300;SDS011;11819;51.394;12.340;2023-04-16T06:19:00;10.98;;;7.60;;
23300;SDS011;11819;51.394;12.340;2023-04-16T06:21:26;10.40;;;6.75;;
23300;SDS011;11819;51.394;12.340;2023-04-16T06:23:53;10.82;;;7.25;;
23300;SDS011;11819;51.394;12.340;2023-04-16T06:26:19;10.75;;;6.60;;
23300;SDS011;11819;51.394;12.340;2023-04-16T06:28:45;10.50;;;6.95;;
23300;SDS011;11819;51.394;12.340;2023-04-16T06:31:11;10.18;;;6.60;;
23300;SDS011;11819;51.394;12.340;2023-04-16T06:33:36;9.40;;;6.57;;
23300;SDS011;11819;51.394;12.340;2023-04-16T06:36:02;10.50;;;6.75;;
23300;SDS011;11819;51.394;12.340;2023-04-16T06:38:27;8.55;;;5.32;;
23300;SDS011;11819;51.394;12.340;2023-04-16T06:40:53;8.40;;;5.75;;
23300;SDS011;11819;51.394;12.340;2023-04-16T06:43:18;10.38;;;5.80;;
23300;SDS011;11819;51.394;12.340;2023-04-16T06:45:44;10.63;;;6.53;;
23300;SDS011;11819;51.394;12.340;2023-04-16T06:48:10;10.02;;;6.28;;
23300;SDS011;11819;51.394;12.340;2023-04-16T06:50:35;10.50;;;6.53;;
23300;SDS011;11819;51.394;12.340;2023-04-16T06:53:01;11.55;;;8.10;;
23300;SDS011;11819;51.394;12.340;2023-04-16T06:55:27;12.13;;;8.05;;
23300;SDS011;11819;51.394;12.340;2023-04-16T06:57:53;9.23;;;6.45;;
23300;SDS011;11819;51.394;12.340;2023-04-16T07:00:18;11.82;;;7.32;;
23300;SDS011;11819;51.394;12.340;2023-04-16T07:02:44;13.20;;;8.18;;
23300;SDS011;11819;51.394;12.340;2023-04-16T07:05:10;13.63;;;8.48;;
23300;SDS011;11819;51.394;12.340;2023-04-16T07:07:36;12.30;;;8.57;;
23300;SDS011;11819;51.394;12.340;2023-04-16T07:10:02;11.98;;;8.20;;
23300;SDS011;11819;51.394;12.340;2023-04-16T07:12:29;12.18;;;8.35;;
23300;SDS011;11819;51.394;12.340;2023-04-16T07:14:56;13.30;;;8.75;;
23300;SDS011;11819;51.394;12.340;2023-04-16T07:17:21;13.05;;;9.52;;
23300;SDS011;11819;51.394;12.340;2023-04-16T07:19:47;15.57;;;10.80;;
23300;SDS011;11819;51.394;12.340;2023-04-16T07:22:13;17.92;;;11.85;;
23300;SDS011;11819;51.394;12.340;2023-04-16T07:24:39;17.75;;;12.32;;
23300;SDS011;11819;51.394;12.340;2023-04-16T07:27:04;19.10;;;13.07;;
23300;SDS011;11819;51.394;12.340;2023-04-16T07:29:30;19.48;;;13.70;;
23300;SDS011;11819;51.394;12.340;2023-04-16T07:31:56;19.83;;;13.57;;
23300;SDS011;11819;51.394;12.340;2023-04-16T07:34:22;19.88;;;13.82;;
23300;SDS011;11819;51.394;12.340;2023-04-16T07:36:47;21.02;;;13.57;;
23300;SDS011;11819;51.394;12.340;2023-04-16T07:39:13;19.60;;;13.80;;
23300;SDS011;11819;51.394;12.340;2023-04-16T07:41:38;22.80;;;15.50;;
23300;SDS011;11819;51.394;12.340;2023-04-16T07:44:05;21.40;;;15.18;;
23300;SDS011;11819;51.394;12.340;2023-04-16T07:46:31;23.63;;;14.65;;
23300;SDS011;11819;51.394;12.340;2023-04-16T07:48:56;22.75;;;15.35;;
23300;SDS011;11819;51.394;12.340;2023-04-16T07:51:22;26.95;;;15.68;;
23300;SDS011;11819;51.394;12.340;2023-04-16T07:53:48;23.08;;;16.45;;
23300;SDS011;11819;51.394;12.340;2023-04-16T07:56:13;21.42;;;15.18;;
23300;SDS011;11819;51.394;12.340;2023-04-16T07:58:39;22.83;;;15.60;;
23300;SDS011;11819;51.394;12.340;2023-04-16T08:01:04;18.55;;;13.27;;
23300;SDS011;11819;51.394;12.340;2023-04-16T08:03:30;20.35;;;14.25;;
23300;SDS011;11819;51.394;12.340;2023-04-16T08:05:56;19.60;;;13.55;;
23300;SDS011;11819;51.394;12.340;2023-04-16T08:08:22;21.55;;;13.95;;
23300;SDS011;11819;51.394;12.340;2023-04-16T08:10:47;19.80;;;13.60;;
23300;SDS011;11819;51.394;12.340;2023-04-16T08:13:13;20.20;;;13.93;;
23300;SDS011;11819;51.394;12.340;2023-04-16T08:15:38;18.83;;;13.25;;
23300;SDS011;11819;51.394;12.340;2023-04-16T08:18:04;22.20;;;14.25;;
23300;SDS011;11819;51.394;12.340;2023-04-16T08:20:31;20.30;;;14.73;;
23300;SDS011;11819;51.394;12.340;2023-04-16T08:22:57;22.90;;;14.55;;
23300;SDS011;11819;51.394;12.340;2023-04-16T08:25:22;23.13;;;15.45;;
23300;SDS011;11819;51.394;12.340;2023-04-16T08:27:48;23.60;;;14.80;;
23300;SDS011;11819;51.394;12.340;2023-04-16T08:30:14;21.77;;;14.93;;
23300;SDS011;11819;51.394;12.340;2023-04-16T08:32:41;22.13;;;14.98;;
23300;SDS011;11819;51.394;12.340;2023-04-16T08:35:08;21.98;;;15.48;;
23300;SDS011;11819;51.394;12.340;2023-04-16T08:37:33;23.13;;;15.57;;
23300;SDS011;11819;51.394;12.340;2023-04-16T08:39:59;22.85;;;15.55;;
23300;SDS011;11819;51.394;12.340;2023-04-16T08:42:33;22.80;;;15.35;;
23300;SDS011;11819;51.394;12.340;2023-04-16T08:45:08;22.92;;;15.52;;
23300;SDS011;11819;51.394;12.340;2023-04-16T08:47:49;22.70;;;15.25;;
23300;SDS011;11819;51.394;12.340;2023-04-16T08:50:16;25.45;;;16.17;;
23300;SDS011;11819;51.394;12.340;2023-04-16T08:52:50;23.55;;;15.63;;
23300;SDS011;11819;51.394;12.340;2023-04-16T08:55:18;22.98;;;15.98;;
23300;SDS011;11819;51.394;12.340;2023-04-16T08:57:51;22.00;;;15.45;;
23300;SDS011;11819;51.394;12.340;2023-04-16T09:00:20;23.33;;;15.80;;
23300;SDS011;11819;51.394;12.340;2023-04-16T09:02:47;22.25;;;14.10;;
23300;SDS011;11819;51.394;12.340;2023-04-16T09:05:14;20.23;;;14.57;;
23300;SDS011;11819;51.394;12.340;2023-04-16T09:07:41;18.42;;;13.18;;
23300;SDS011;11819;51.394;12.340;2023-04-16T09:10:11;18.42;;;13.00;;
23300;SDS011;11819;51.394;12.340;2023-04-16T09:12:40;20.42;;;13.80;;
23300;SDS011;11819;51.394;12.340;2023-04-16T09:15:07;19.42;;;14.15;;
23300;SDS011;11819;51.394;12.340;2023-04-16T09:17:34;21.52;;;15.13;;
23300;SDS011;11819;51.394;12.340;2023-04-16T09:20:00;21.63;;;15.70;;
23300;SDS011;11819;51.394;12.340;2023-04-16T09:22:28;22.05;;;15.73;;
23300;SDS011;11819;51.394;12.340;2023-04-16T09:24:54;20.00;;;14.48;;
23300;SDS011;11819;51.394;12.340;2023-04-16T09:27:20;19.65;;;14.55;;
23300;SDS011;11819;51.394;12.340;2023-04-16T09:29:46;16.10;;;12.52;;
23300;SDS011;11819;51.394;12.340;2023-04-16T09:32:12;16.90;;;12.07;;
23300;SDS011;11819;51.394;12.340;2023-04-16T09:34:52;20.80;;;12.52;;
23300;SDS011;11819;51.394;12.340;2023-04-16T09:37:23;17.95;;;11.90;;
23300;SDS011;11819;51.394;12.340;2023-04-16T09:39:59;17.33;;;12.88;;
23300;SDS011;11819;51.394;12.340;2023-04-16T09:42:29;17.20;;;12.80;;
23300;SDS011;11819;51.394;12.340;2023-04-16T09:44:57;17.20;;;12.07;;
23300;SDS011;11819;51.394;12.340;2023-04-16T09:47:24;15.98;;;11.55;;
23300;SDS011;11819;51.394;12.340;2023-04-16T09:50:01;14.68;;;10.95;;
23300;SDS011;11819;51.394;12.340;2023-04-16T09:52:27;16.55;;;12.20;;
23300;SDS011;11819;51.394;12.340;2023-04-16T09:54:53;16.60;;;11.77;;
23300;SDS011;11819;51.394;12.340;2023-04-16T09:57:19;16.30;;;11.93;;
23300;SDS011;11819;51.394;12.340;2023-04-16T09:59:46;17.05;;;12.23;;
23300;SDS011;11819;51.394;12.340;2023-04-16T10:02:12;16.25;;;11.93;;
23300;SDS011;11819;51.394;12.340;2023-04-16T10:04:48;16.50;;;11.82;;
23300;SDS011;11819;51.394;12.340;2023-04-16T10:07:16;16.13;;;12.00;;
23300;SDS011;11819;51.394;12.340;2023-04-16T10:09:42;15.75;;;11.82;;
23300;SDS011;11819;51.394;12.340;2023-04-16T10:12:08;16.75;;;12.98;;
23300;SDS011;11819;51.394;12.340;2023-04-16T10:14:35;15.02;;;11.52;;
23300;SDS011;11819;51.394;12.340;2023-04-16T10:17:00;14.52;;;10.70;;
23300;SDS011;11819;51.394;12.340;2023-04-16T10:19:27;15.70;;;10.48;;
23300;SDS011;11819;51.394;12.340;2023-04-16T10:21:56;17.45;;;12.40;;
23300;SDS011;11819;51.394;12.340;2023-04-16T10:24:23;15.02;;;10.52;;
23300;SDS011;11819;51.394;12.340;2023-04-16T10:26:50;15.52;;;10.80;;
23300;SDS011;11819;51.394;12.340;2023-04-16T10:29:17;14.73;;;10.57;;
23300;SDS011;11819;51.394;12.340;2023-04-16T10:31:44;13.90;;;10.13;;
23300;SDS011;11819;51.394;12.340;2023-04-16T10:34:11;12.20;;;9.55;;
23300;SDS011;11819;51.394;12.340;2023-04-16T10:36:38;11.13;;;8.20;;
23300;SDS011;11819;51.394;12.340;2023-04-16T10:39:09;12.15;;;8.23;;
23300;SDS011;11819;51.394;12.340;2023-04-16T10:41:36;10.73;;;7.35;;
23300;SDS011;11819;51.394;12.340;2023-04-16T10:44:06;9.90;;;7.82;;
23300;SDS011;11819;51.394;12.340;2023-04-16T10:46:40;12.75;;;7.90;;
23300;SDS011;11819;51.394;12.340;2023-04-16T10:49:16;10.60;;;7.70;;
23300;SDS011;11819;51.394;12.340;2023-04-16T10:51:52;10.07;;;6.97;;
23300;SDS011;11819;51.394;12.340;2023-04-16T10:56:52;9.43;;;7.25;;
23300;SDS011;11819;51.394;12.340;2023-04-16T10:59:21;9.00;;;7.00;;
23300;SDS011;11819;51.394;12.340;2023-04-16T11:01:48;11.15;;;7.35;;
23300;SDS011;11819;51.394;12.340;2023-04-16T11:07:00;9.60;;;6.85;;
23300;SDS011;11819;51.394;12.340;2023-04-16T11:09:45;10.93;;;7.82;;
23300;SDS011;11819;51.394;12.340;2023-04-16T11:12:20;11.60;;;8.15;;
23300;SDS011;11819;51.394;12.340;2023-04-16T11:15:01;9.82;;;7.90;;
23300;SDS011;11819;51.394;12.340;2023-04-16T11:17:46;10.52;;;8.45;;
23300;SDS011;11819;51.394;12.340;2023-04-16T11:22:42;9.70;;;7.88;;
23300;SDS011;11819;51.394;12.340;2023-04-16T11:25:09;10.57;;;8.13;;
23300;SDS011;11819;51.394;12.340;2023-04-16T11:27:35;10.40;;;7.95;;
23300;SDS011;11819;51.394;12.340;2023-04-16T11:30:02;10.98;;;7.68;;
23300;SDS011;11819;51.394;12.340;2023-04-16T11:32:30;10.95;;;8.18;;
23300;SDS011;11819;51.394;12.340;2023-04-16T11:35:00;9.10;;;7.05;;
23300;SDS011;11819;51.394;12.340;2023-04-16T11:37:35;9.77;;;7.22;;
23300;SDS011;11819;51.394;12.340;2023-04-16T11:40:05;10.60;;;8.07;;
23300;SDS011;11819;51.394;12.340;2023-04-16T11:42:32;9.68;;;7.00;;
23300;SDS011;11819;51.394;12.340;2023-04-16T11:45:01;11.75;;;8.02;;
23300;SDS011;11819;51.394;12.340;2023-04-16T11:47:28;11.35;;;8.25;;
23300;SDS011;11819;51.394;12.340;2023-04-16T11:49:55;10.75;;;8.15;;
23300;SDS011;11819;51.394;12.340;2023-04-16T11:52:28;9.95;;;7.53;;
23300;SDS011;11819;51.394;12.340;2023-04-16T11:54:55;11.57;;;8.73;;
23300;SDS011;11819;51.394;12.340;2023-04-16T11:57:28;10.90;;;7.70;;
23300;SDS011;11819;51.394;12.340;2023-04-16T11:59:55;11.85;;;8.35;;
23300;SDS011;11819;51.394;12.340;2023-04-16T12:05:04;11.77;;;8.57;;
23300;SDS011;11819;51.394;12.340;2023-04-16T12:07:42;11.98;;;8.25;;
23300;SDS011;11819;51.394;12.340;2023-04-16T12:10:10;11.63;;;7.57;;
23300;SDS011;11819;51.394;12.340;2023-04-16T12:12:35;10.45;;;7.78;;
23300;SDS011;11819;51.394;12.340;2023-04-16T12:15:01;11.68;;;8.60;;
23300;SDS011;11819;51.394;12.340;2023-04-16T12:17:28;13.13;;;9.50;;
23300;SDS011;11819;51.394;12.340;2023-04-16T12:19:55;12.98;;;10.18;;
23300;SDS011;11819;51.394;12.340;2023-04-16T12:22:26;11.80;;;9.45;;
23300;SDS011;11819;51.394;12.340;2023-04-16T12:25:03;13.85;;;10.00;;
23300;SDS011;11819;51.394;12.340;2023-04-16T12:27:40;12.55;;;9.05;;
23300;SDS011;11819;51.394;12.340;2023-04-16T12:30:11;15.20;;;10.32;;
23300;SDS011;11819;51.394;12.340;2023-04-16T12:32:38;16.40;;;10.85;;
23300;SDS011;11819;51.394;12.340;2023-04-16T12:35:04;15.13;;;10.82;;
23300;SDS011;11819;51.394;12.340;2023-04-16T12:37:30;13.45;;;9.52;;
23300;SDS011;11819;51.394;12.340;2023-04-16T12:39:56;13.15;;;9.20;;
23300;SDS011;11819;51.394;12.340;2023-04-16T12:42:21;12.55;;;9.68;;
23300;SDS011;11819;51.394;12.340;2023-04-16T12:44:47;14.68;;;10.57;;
23300;SDS011;11819;51.394;12.340;2023-04-16T12:47:12;15.57;;;10.75;;
23300;SDS011;11819;51.394;12.340;2023-04-16T12:49:38;13.40;;;9.35;;
23300;SDS011;11819;51.394;12.340;2023-04-16T12:52:04;13.30;;;9.95;;
23300;SDS011;11819;51.394;12.340;2023-04-16T12:54:30;14.70;;;10.27;;
23300;SDS011;11819;51.394;12.340;2023-04-16T12:56:56;13.77;;;10.02;;
23300;SDS011;11819;51.394;12.340;2023-04-16T12:59:22;15.15;;;10.40;;
23300;SDS011;11819;51.394;12.340;2023-04-16T13:01:48;13.65;;;10.07;;
23300;SDS011;11819;51.394;12.340;2023-04-16T13:04:13;15.10;;;10.43;;
23300;SDS011;11819;51.394;12.340;2023-04-16T13:06:40;14.52;;;9.77;;
23300;SDS011;11819;51.394;12.340;2023-04-16T13:09:05;13.48;;;9.73;;
23300;SDS011;11819;51.394;12.340;2023-04-16T13:11:31;15.68;;;10.93;;
23300;SDS011;11819;51.394;12.340;2023-04-16T13:13:57;16.70;;;11.57;;
23300;SDS011;11819;51.394;12.340;2023-04-16T13:16:23;22.70;;;14.20;;
23300;SDS011;11819;51.394;12.340;2023-04-16T13:18:48;19.42;;;13.48;;
23300;SDS011;11819;51.394;12.340;2023-04-16T13:21:14;19.10;;;13.02;;
23300;SDS011;11819;51.394;12.340;2023-04-16T13:23:40;18.88;;;13.32;;
23300;SDS011;11819;51.394;12.340;2023-04-16T13:26:05;19.25;;;13.80;;
23300;SDS011;11819;51.394;12.340;2023-04-16T13:28:31;20.58;;;13.80;;
23300;SDS011;11819;51.394;12.340;2023-04-16T13:30:57;18.40;;;12.60;;
23300;SDS011;11819;51.394;12.340;2023-04-16T13:33:24;20.45;;;13.40;;
23300;SDS011;11819;51.394;12.340;2023-04-16T13:35:50;17.52;;;12.43;;
23300;SDS011;11819;51.394;12.340;2023-04-16T13:38:16;18.60;;;12.50;;
23300;SDS011;11819;51.394;12.340;2023-04-16T13:40:41;17.27;;;12.68;;
23300;SDS011;11819;51.394;12.340;2023-04-16T13:43:07;18.50;;;12.27;;
23300;SDS011;11819;51.394;12.340;2023-04-16T13:45:33;18.45;;;11.93;;
23300;SDS011;11819;51.394;12.340;2023-04-16T13:47:58;16.77;;;11.93;;
23300;SDS011;11819;51.394;12.340;2023-04-16T13:50:25;18.40;;;12.63;;
23300;SDS011;11819;51.394;12.340;2023-04-16T13:52:50;18.73;;;12.73;;
23300;SDS011;11819;51.394;12.340;2023-04-16T13:55:16;17.20;;;11.93;;
23300;SDS011;11819;51.394;12.340;2023-04-16T13:57:45;17.45;;;12.10;;
23300;SDS011;11819;51.394;12.340;2023-04-16T14:00:12;18.20;;;12.13;;
23300;SDS011;11819;51.394;12.340;2023-04-16T14:02:40;19.92;;;12.85;;
23300;SDS011;11819;51.394;12.340;2023-04-16T14:05:06;17.25;;;12.18;;
23300;SDS011;11819;51.394;12.340;2023-04-16T14:07:32;17.42;;;12.43;;
23300;SDS011;11819;51.394;12.340;2023-04-16T14:09:57;16.98;;;12.52;;
23300;SDS011;11819;51.394;12.340;2023-04-16T14:12:23;16.67;;;13.02;;
23300;SDS011;11819;51.394;12.340;2023-04-16T14:14:49;20.75;;;14.57;;
23300;SDS011;11819;51.394;12.340;2023-04-16T14:17:15;19.35;;;13.05;;
23300;SDS011;11819;51.394;12.340;2023-04-16T14:19:40;24.15;;;14.45;;
23300;SDS011;11819;51.394;12.340;2023-04-16T14:22:06;19.67;;;13.35;;